createdAt,value
2018-11-20T00:00:33.770Z,19.23
2018-11-20T00:05:50.082Z,19.80
2018-11-20T00:11:06.389Z,19.57
2018-11-20T00:16:22.694Z,19.50
2018-11-20T00:21:39.034Z,19.07
2018-11-20T00:26:55.413Z,19.00
2018-11-20T00:32:12.010Z,20.60
2018-11-20T00:37:28.405Z,19.13
2018-11-20T00:42:44.725Z,18.80
2018-11-20T00:48:01.079Z,18.80
2018-11-20T00:53:17.438Z,19.17
2018-11-20T00:58:33.753Z,19.47
2018-11-20T01:03:50.085Z,18.43
2018-11-20T01:09:06.440Z,18.37
2018-11-20T01:14:22.813Z,19.67
2018-11-20T01:19:39.100Z,18.47
2018-11-20T01:24:55.447Z,19.83
2018-11-20T01:30:11.765Z,18.27
2018-11-20T01:35:28.044Z,18.30
2018-11-20T01:40:34.983Z,18.83
2018-11-20T01:45:51.301Z,17.80
2018-11-20T01:51:07.658Z,18.07
2018-11-20T01:56:23.938Z,18.70
2018-11-20T02:01:40.254Z,18.13
2018-11-20T02:06:56.561Z,17.40
2018-11-20T02:12:12.865Z,18.60
2018-11-20T02:17:48.367Z,18.53
2018-11-20T02:23:04.656Z,17.97
2018-11-20T02:33:34.445Z,18.40
2018-11-20T02:38:50.719Z,18.80
2018-11-20T02:44:07.309Z,17.60
2018-11-20T02:49:23.644Z,17.73
2018-11-20T02:54:39.945Z,18.00
2018-11-20T02:59:56.732Z,18.37
2018-11-20T03:05:13.062Z,19.20
2018-11-20T03:10:29.424Z,18.83
2018-11-20T03:15:45.733Z,20.40
2018-11-20T03:21:02.007Z,18.67
2018-11-20T03:26:20.069Z,18.43
2018-11-20T03:31:35.787Z,19.03
2018-11-20T03:36:52.093Z,19.17
2018-11-20T03:42:08.409Z,19.70
2018-11-20T03:47:24.701Z,19.23
2018-11-20T03:52:41.028Z,18.60
2018-11-20T03:57:57.442Z,19.67
2018-11-20T04:03:13.777Z,19.77
2018-11-20T04:08:30.076Z,18.37
2018-11-20T04:13:46.718Z,19.87
2018-11-20T04:19:03.038Z,17.43
2018-11-20T04:24:19.369Z,19.23
2018-11-20T04:29:35.692Z,18.90
2018-11-20T04:34:52.069Z,19.10
2018-11-20T04:40:08.702Z,18.73
2018-11-20T04:45:25.162Z,18.67
2018-11-20T04:50:32.315Z,18.20
2018-11-20T04:55:48.605Z,19.97
2018-11-20T05:01:04.915Z,18.27
2018-11-20T05:06:21.229Z,18.00
2018-11-20T05:11:37.530Z,18.20
2018-11-20T05:16:53.850Z,18.63
2018-11-20T05:22:10.134Z,18.03
2018-11-20T05:27:26.549Z,17.53
2018-11-20T05:32:42.846Z,17.13
2018-11-20T05:37:59.136Z,16.73
2018-11-20T05:43:15.434Z,23.23
2018-11-20T05:48:31.756Z,18.17
2018-11-20T05:53:48.388Z,16.57
2018-11-20T05:59:04.687Z,15.67
2018-11-20T06:04:20.993Z,15.50
2018-11-20T06:09:27.164Z,15.83
2018-11-20T06:14:43.537Z,16.33
2018-11-20T06:19:59.857Z,15.03
2018-11-20T06:25:16.184Z,15.73
2018-11-20T06:30:32.552Z,15.87
2018-11-20T06:35:48.873Z,15.83
2018-11-20T06:41:05.245Z,14.60
2018-11-20T06:46:21.625Z,14.90
2018-11-20T06:51:37.907Z,14.40
2018-11-20T06:56:54.289Z,13.73
2018-11-20T07:02:10.625Z,14.40
2018-11-20T07:07:27.256Z,14.07
2018-11-20T07:12:43.549Z,12.90
2018-11-20T07:17:59.876Z,13.40
2018-11-20T07:23:16.204Z,13.10
2018-11-20T07:28:32.517Z,12.27
2018-11-20T07:33:48.808Z,11.67
2018-11-20T07:39:05.167Z,12.40
2018-11-20T07:44:13.654Z,12.07
2018-11-20T07:49:29.982Z,13.03
2018-11-20T07:54:46.273Z,12.83
2018-11-20T08:00:21.724Z,13.13
2018-11-20T08:05:39.863Z,12.53
2018-11-20T08:10:56.214Z,12.17
2018-11-20T08:16:02.051Z,13.30
2018-11-20T08:21:18.236Z,13.27
2018-11-20T08:26:34.572Z,13.77
2018-11-20T08:31:50.858Z,13.20
2018-11-20T08:37:07.194Z,12.43
2018-11-20T08:42:23.587Z,13.40
2018-11-20T08:47:39.888Z,14.07
2018-11-20T08:52:45.640Z,14.50
2018-11-20T08:58:02.095Z,14.97
2018-11-20T09:03:17.674Z,14.20
2018-11-20T09:08:33.817Z,13.60
2018-11-20T09:13:50.167Z,12.83
2018-11-20T09:18:58.271Z,12.53
2018-11-20T09:24:14.656Z,12.10
2018-11-20T09:29:30.998Z,11.73
2018-11-20T09:35:06.663Z,9.97
2018-11-20T09:40:41.913Z,9.50
2018-11-20T09:46:17.368Z,9.07
2018-11-20T09:51:32.233Z,9.17
2018-11-20T09:56:48.590Z,8.60
2018-11-20T10:02:04.864Z,7.93
2018-11-20T10:07:21.288Z,8.03
2018-11-20T10:12:37.520Z,8.10
2018-11-20T10:17:53.801Z,8.13
2018-11-20T10:23:10.106Z,7.60
2018-11-20T10:28:26.632Z,8.83
2018-11-20T10:33:42.928Z,8.17
2018-11-20T10:38:59.239Z,8.40
2018-11-20T10:44:15.524Z,8.10
2018-11-20T10:49:25.022Z,8.33
2018-11-20T10:54:41.531Z,9.17
2018-11-20T10:59:57.807Z,8.90
2018-11-20T11:05:14.324Z,9.57
2018-11-20T11:10:16.052Z,9.67
2018-11-20T11:15:32.377Z,10.00
2018-11-20T11:20:48.806Z,9.20
2018-11-20T11:26:05.117Z,10.27
2018-11-20T11:31:21.738Z,10.77
2018-11-20T11:36:38.060Z,10.13
2018-11-20T11:41:54.421Z,11.27
2018-11-20T11:47:10.709Z,10.37
2018-11-20T11:52:27.017Z,11.10
2018-11-20T11:57:43.356Z,9.77
2018-11-20T12:08:15.588Z,10.80
2018-11-20T12:13:31.899Z,9.50
2018-11-20T12:18:48.217Z,9.67
2018-11-20T12:24:04.575Z,9.70
2018-11-20T12:29:20.868Z,9.57
2018-11-20T12:34:37.586Z,8.80
2018-11-20T12:39:53.434Z,8.90
2018-11-20T12:45:09.758Z,8.53
2018-11-20T12:50:26.254Z,7.37
2018-11-20T12:55:42.500Z,7.97
2018-11-20T13:00:59.261Z,7.33
2018-11-20T13:06:15.069Z,7.13
2018-11-20T13:11:31.457Z,7.03
2018-11-20T13:16:47.793Z,6.67
2018-11-20T13:22:04.435Z,7.37
2018-11-20T13:27:39.918Z,6.73
2018-11-20T13:32:56.214Z,7.30
2018-11-20T13:38:13.774Z,7.33
2018-11-20T13:43:28.923Z,9.57
2018-11-20T13:48:45.742Z,7.63
2018-11-20T13:54:01.917Z,6.07
2018-11-20T13:59:18.252Z,6.47
2018-11-20T14:04:34.563Z,6.63
2018-11-20T14:09:52.363Z,6.70
2018-11-20T14:15:09.006Z,7.20
2018-11-20T14:20:08.324Z,6.13
2018-11-20T14:25:27.947Z,7.17
2018-11-20T14:30:44.291Z,7.57
2018-11-20T14:36:00.994Z,7.30
2018-11-20T14:41:17.269Z,8.07
2018-11-20T14:46:33.616Z,7.83
2018-11-20T14:51:49.935Z,9.00
2018-11-20T14:57:06.227Z,8.83
2018-11-20T15:02:22.587Z,9.03
2018-11-20T15:07:39.182Z,8.60
2018-11-20T15:12:55.558Z,10.63
2018-11-20T15:18:11.910Z,9.30
2018-11-20T15:23:28.206Z,10.57
2018-11-20T15:28:44.501Z,11.27
2018-11-20T15:34:00.798Z,11.10
2018-11-20T15:39:17.137Z,10.73
2018-11-20T15:44:33.441Z,11.43
2018-11-20T15:49:49.716Z,11.07
2018-11-20T15:55:52.900Z,10.90
2018-11-20T16:01:09.088Z,11.33
2018-11-20T16:06:25.002Z,11.90
2018-11-20T16:11:40.979Z,12.40
2018-11-20T16:16:56.939Z,13.37
2018-11-20T16:22:12.865Z,13.60
2018-11-20T16:27:29.116Z,13.37
2018-11-20T16:32:45.075Z,13.40
2018-11-20T16:43:22.846Z,13.27
2018-11-20T16:48:38.780Z,12.77
2018-11-20T16:53:54.726Z,12.80
2018-11-20T16:59:10.673Z,12.20
2018-11-20T17:04:26.598Z,14.37
2018-11-20T17:09:42.486Z,14.23
2018-11-20T17:14:58.418Z,13.83
2018-11-20T17:20:14.386Z,12.40
2018-11-20T17:25:30.309Z,12.73
2018-11-20T17:30:46.236Z,12.27
2018-11-20T17:36:02.202Z,11.57
2018-11-20T17:41:17.336Z,15.60
2018-11-20T17:46:31.969Z,14.87
2018-11-20T17:51:47.921Z,14.83
2018-11-20T17:57:03.885Z,14.93
2018-11-20T18:02:10.849Z,15.10
2018-11-20T18:07:29.798Z,13.13
2018-11-20T18:12:55.584Z,15.60
2018-11-20T18:18:10.358Z,14.17
2018-11-20T18:23:24.836Z,14.47
2018-11-20T18:28:52.134Z,14.23
2018-11-20T18:34:03.613Z,15.17
2018-11-20T18:39:21.705Z,14.93
2018-11-20T18:44:36.566Z,15.77
2018-11-20T18:49:59.107Z,15.57
2018-11-20T18:55:13.663Z,16.17
2018-11-20T19:00:26.229Z,15.37
2018-11-20T19:06:00.625Z,15.63
2018-11-20T19:11:25.882Z,13.70
2018-11-20T19:16:40.757Z,13.67
2018-11-20T19:21:56.710Z,14.00
2018-11-20T19:27:11.349Z,15.03
2018-11-20T19:32:26.230Z,14.77
2018-11-20T19:37:57.443Z,13.97
2018-11-20T19:43:15.983Z,13.63
2018-11-20T19:48:30.645Z,14.57
2018-11-20T19:53:45.127Z,15.87
2018-11-20T19:59:13.118Z,15.87
2018-11-20T20:04:44.002Z,15.00
2018-11-20T20:09:59.986Z,14.60
2018-11-20T20:15:19.489Z,18.53
2018-11-20T20:20:54.363Z,17.43
2018-11-20T20:26:22.350Z,18.40
2018-11-20T20:31:40.878Z,16.47
2018-11-20T20:36:55.433Z,16.60
2018-11-20T20:42:01.410Z,15.90
2018-11-20T20:47:35.461Z,17.07
2018-11-20T20:52:50.253Z,15.63
2018-11-20T20:57:55.190Z,16.33
2018-11-20T21:03:10.222Z,17.10
2018-11-20T21:08:24.248Z,16.77
2018-11-20T21:13:55.400Z,17.00
2018-11-20T21:19:04.357Z,18.33
2018-11-20T21:24:22.938Z,20.00
2018-11-20T21:29:47.107Z,19.53
2018-11-20T21:35:01.936Z,18.27
2018-11-20T21:40:16.963Z,17.50
2018-11-20T21:45:29.451Z,17.60
2018-11-20T21:50:46.969Z,17.30
2018-11-20T21:56:02.150Z,17.33
2018-11-20T22:01:18.811Z,18.27
2018-11-20T22:06:33.516Z,19.17
2018-11-20T22:11:47.955Z,17.33
2018-11-20T22:17:06.496Z,16.97
2018-11-20T22:22:23.034Z,16.97
2018-11-20T22:27:57.315Z,17.23
2018-11-20T22:33:25.476Z,17.43
2018-11-20T22:38:30.078Z,18.33
2018-11-20T22:43:35.956Z,18.03
2018-11-20T22:49:03.875Z,16.57
2018-11-20T22:54:22.440Z,18.27
2018-11-20T22:59:50.598Z,18.63
2018-11-20T23:05:15.269Z,19.00
2018-11-20T23:10:12.548Z,17.43
2018-11-20T23:15:09.843Z,19.43
2018-11-20T23:20:06.822Z,17.50
2018-11-20T23:25:03.268Z,19.47
2018-11-20T23:30:00.056Z,17.37
2018-11-20T23:34:56.720Z,16.60
2018-11-20T23:39:53.674Z,16.77
2018-11-20T23:44:50.100Z,15.80
2018-11-20T23:49:46.475Z,15.67
2018-11-20T23:54:43.017Z,14.40
2018-11-20T23:59:39.401Z,14.57
